sensor_id;sensor_type;location;lat;lon;timestamp;P1;durP1;ratioP1;P2;durP2;ratioP2
75035;SDS011;64247;51.540;5.854;2023-03-01T00:01:10;10.38;;;4.90;;
75035;SDS011;64247;51.540;5.854;2023-03-01T00:03:11;12.18;;;4.82;;
75035;SDS011;64247;51.540;5.854;2023-03-01T00:05:11;8.70;;;5.00;;
75035;SDS011;64247;51.540;5.854;2023-03-01T00:07:12;9.50;;;4.97;;
75035;SDS011;64247;51.540;5.854;2023-03-01T00:09:13;7.53;;;4.90;;
75035;SDS011;64247;51.540;5.854;2023-03-01T00:11:22;10.77;;;5.80;;
75035;SDS011;64247;51.540;5.854;2023-03-01T00:13:23;9.98;;;5.28;;
75035;SDS011;64247;51.540;5.854;2023-03-01T00:15:23;8.98;;;4.35;;
75035;SDS011;64247;51.540;5.854;2023-03-01T00:17:24;9.38;;;4.85;;
75035;SDS011;64247;51.540;5.854;2023-03-01T00:19:24;12.43;;;5.40;;
75035;SDS011;64247;51.540;5.854;2023-03-01T00:21:25;12.02;;;5.10;;
75035;SDS011;64247;51.540;5.854;2023-03-01T00:25:26;8.65;;;5.05;;
75035;SDS011;64247;51.540;5.854;2023-03-01T00:27:27;7.82;;;4.47;;
75035;SDS011;64247;51.540;5.854;2023-03-01T00:29:27;7.97;;;4.72;;
75035;SDS011;64247;51.540;5.854;2023-03-01T00:31:30;9.32;;;5.68;;
75035;SDS011;64247;51.540;5.854;2023-03-01T00:33:30;10.90;;;5.60;;
75035;SDS011;64247;51.540;5.854;2023-03-01T00:35:34;7.90;;;5.10;;
75035;SDS011;64247;51.540;5.854;2023-03-01T00:37:35;10.82;;;5.30;;
75035;SDS011;64247;51.540;5.854;2023-03-01T00:39:35;9.98;;;4.90;;
75035;SDS011;64247;51.540;5.854;2023-03-01T00:41:36;12.25;;;5.38;;
75035;SDS011;64247;51.540;5.854;2023-03-01T00:43:36;10.50;;;5.93;;
75035;SDS011;64247;51.540;5.854;2023-03-01T00:45:37;10.88;;;5.90;;
75035;SDS011;64247;51.540;5.854;2023-03-01T00:47:37;11.35;;;6.13;;
75035;SDS011;64247;51.540;5.854;2023-03-01T00:49:38;10.18;;;4.70;;
75035;SDS011;64247;51.540;5.854;2023-03-01T00:51:39;8.55;;;5.25;;
75035;SDS011;64247;51.540;5.854;2023-03-01T00:53:42;12.52;;;4.97;;
75035;SDS011;64247;51.540;5.854;2023-03-01T00:55:42;11.52;;;5.47;;
75035;SDS011;64247;51.540;5.854;2023-03-01T00:57:43;10.13;;;5.32;;
75035;SDS011;64247;51.540;5.854;2023-03-01T00:59:43;10.77;;;5.85;;
75035;SDS011;64247;51.540;5.854;2023-03-01T01:01:44;11.00;;;5.60;;
75035;SDS011;64247;51.540;5.854;2023-03-01T01:06:05;10.18;;;5.13;;
75035;SDS011;64247;51.540;5.854;2023-03-01T01:08:09;9.15;;;6.20;;
75035;SDS011;64247;51.540;5.854;2023-03-01T01:10:10;6.78;;;5.38;;
75035;SDS011;64247;51.540;5.854;2023-03-01T01:12:17;7.82;;;4.60;;
75035;SDS011;64247;51.540;5.854;2023-03-01T01:14:18;12.15;;;4.47;;
75035;SDS011;64247;51.540;5.854;2023-03-01T01:18:19;7.25;;;3.85;;
75035;SDS011;64247;51.540;5.854;2023-03-01T01:20:20;10.45;;;5.68;;
75035;SDS011;64247;51.540;5.854;2023-03-01T01:22:20;7.18;;;4.72;;
75035;SDS011;64247;51.540;5.854;2023-03-01T01:24:21;7.00;;;4.75;;
75035;SDS011;64247;51.540;5.854;2023-03-01T01:26:23;13.38;;;6.20;;
75035;SDS011;64247;51.540;5.854;2023-03-01T01:28:23;7.35;;;4.75;;
75035;SDS011;64247;51.540;5.854;2023-03-01T01:30:24;7.63;;;4.70;;
75035;SDS011;64247;51.540;5.854;2023-03-01T01:32:25;8.30;;;4.82;;
75035;SDS011;64247;51.540;5.854;2023-03-01T01:34:26;10.07;;;4.82;;
75035;SDS011;64247;51.540;5.854;2023-03-01T01:36:26;7.53;;;4.43;;
75035;SDS011;64247;51.540;5.854;2023-03-01T01:38:27;6.90;;;4.28;;
75035;SDS011;64247;51.540;5.854;2023-03-01T01:40:27;7.43;;;4.30;;
75035;SDS011;64247;51.540;5.854;2023-03-01T01:42:28;9.02;;;5.80;;
75035;SDS011;64247;51.540;5.854;2023-03-01T01:44:29;10.75;;;5.03;;
75035;SDS011;64247;51.540;5.854;2023-03-01T01:46:30;10.77;;;4.82;;
75035;SDS011;64247;51.540;5.854;2023-03-01T01:48:39;7.38;;;4.88;;
75035;SDS011;64247;51.540;5.854;2023-03-01T01:50:41;7.72;;;4.32;;
75035;SDS011;64247;51.540;5.854;2023-03-01T01:52:45;7.70;;;4.07;;
75035;SDS011;64247;51.540;5.854;2023-03-01T01:57:10;8.63;;;3.95;;
75035;SDS011;64247;51.540;5.854;2023-03-01T01:59:11;7.95;;;5.30;;
75035;SDS011;64247;51.540;5.854;2023-03-01T02:01:12;7.70;;;4.28;;
75035;SDS011;64247;51.540;5.854;2023-03-01T02:03:15;11.75;;;5.43;;
75035;SDS011;64247;51.540;5.854;2023-03-01T02:05:21;7.22;;;4.50;;
75035;SDS011;64247;51.540;5.854;2023-03-01T02:07:22;7.28;;;4.30;;
75035;SDS011;64247;51.540;5.854;2023-03-01T02:09:24;7.43;;;4.30;;
75035;SDS011;64247;51.540;5.854;2023-03-01T02:11:24;6.70;;;4.05;;
75035;SDS011;64247;51.540;5.854;2023-03-01T02:13:26;10.68;;;5.10;;
75035;SDS011;64247;51.540;5.854;2023-03-01T02:15:31;8.70;;;4.90;;
75035;SDS011;64247;51.540;5.854;2023-03-01T02:17:32;11.75;;;5.40;;
75035;SDS011;64247;51.540;5.854;2023-03-01T02:26:46;12.75;;;5.63;;
75035;SDS011;64247;51.540;5.854;2023-03-01T02:28:48;9.20;;;5.07;;
75035;SDS011;64247;51.540;5.854;2023-03-01T02:30:49;14.65;;;6.28;;
75035;SDS011;64247;51.540;5.854;2023-03-01T02:33:10;11.52;;;6.30;;
75035;SDS011;64247;51.540;5.854;2023-03-01T02:37:13;12.88;;;6.32;;
75035;SDS011;64247;51.540;5.854;2023-03-01T02:39:17;7.60;;;4.65;;
75035;SDS011;64247;51.540;5.854;2023-03-01T02:41:18;9.57;;;4.45;;
75035;SDS011;64247;51.540;5.854;2023-03-01T02:43:20;8.77;;;4.80;;
75035;SDS011;64247;51.540;5.854;2023-03-01T02:45:21;10.52;;;4.47;;
75035;SDS011;64247;51.540;5.854;2023-03-01T02:47:23;9.43;;;4.60;;
75035;SDS011;64247;51.540;5.854;2023-03-01T02:49:28;6.53;;;4.50;;
75035;SDS011;64247;51.540;5.854;2023-03-01T02:53:22;5.88;;;4.18;;
75035;SDS011;64247;51.540;5.854;2023-03-01T02:56:23;8.57;;;4.95;;
75035;SDS011;64247;51.540;5.854;2023-03-01T02:58:24;5.50;;;3.63;;
75035;SDS011;64247;51.540;5.854;2023-03-01T03:02:27;5.43;;;4.05;;
75035;SDS011;64247;51.540;5.854;2023-03-01T03:04:44;7.50;;;4.07;;
75035;SDS011;64247;51.540;5.854;2023-03-01T03:06:45;8.75;;;4.38;;
75035;SDS011;64247;51.540;5.854;2023-03-01T03:08:46;10.30;;;5.35;;
75035;SDS011;64247;51.540;5.854;2023-03-01T03:10:46;10.40;;;5.15;;
75035;SDS011;64247;51.540;5.854;2023-03-01T03:12:50;6.32;;;4.30;;
75035;SDS011;64247;51.540;5.854;2023-03-01T03:14:51;5.13;;;3.83;;
75035;SDS011;64247;51.540;5.854;2023-03-01T03:16:53;10.60;;;5.72;;
75035;SDS011;64247;51.540;5.854;2023-03-01T03:18:53;9.32;;;4.65;;
75035;SDS011;64247;51.540;5.854;2023-03-01T03:20:54;6.10;;;4.40;;
75035;SDS011;64247;51.540;5.854;2023-03-01T03:22:55;8.70;;;4.75;;
75035;SDS011;64247;51.540;5.854;2023-03-01T03:26:56;9.90;;;4.57;;
75035;SDS011;64247;51.540;5.854;2023-03-01T03:28:56;8.55;;;4.07;;
75035;SDS011;64247;51.540;5.854;2023-03-01T03:30:57;6.63;;;4.50;;
75035;SDS011;64247;51.540;5.854;2023-03-01T03:32:58;7.13;;;4.43;;
75035;SDS011;64247;51.540;5.854;2023-03-01T03:34:59;12.35;;;5.88;;
75035;SDS011;64247;51.540;5.854;2023-03-01T03:36:59;9.65;;;4.78;;
75035;SDS011;64247;51.540;5.854;2023-03-01T03:39:00;11.55;;;4.80;;
75035;SDS011;64247;51.540;5.854;2023-03-01T03:41:02;9.68;;;5.15;;
75035;SDS011;64247;51.540;5.854;2023-03-01T03:43:03;6.03;;;3.63;;
75035;SDS011;64247;51.540;5.854;2023-03-01T03:45:04;8.95;;;4.35;;
75035;SDS011;64247;51.540;5.854;2023-03-01T03:47:05;5.90;;;4.60;;
75035;SDS011;64247;51.540;5.854;2023-03-01T03:49:05;6.97;;;4.32;;
75035;SDS011;64247;51.540;5.854;2023-03-01T03:51:06;7.30;;;4.60;;
75035;SDS011;64247;51.540;5.854;2023-03-01T03:53:08;9.27;;;4.68;;
75035;SDS011;64247;51.540;5.854;2023-03-01T03:55:10;8.95;;;5.03;;
75035;SDS011;64247;51.540;5.854;2023-03-01T03:57:11;9.95;;;4.70;;
75035;SDS011;64247;51.540;5.854;2023-03-01T03:59:11;8.60;;;4.20;;
75035;SDS011;64247;51.540;5.854;2023-03-01T04:01:12;9.40;;;4.10;;
75035;SDS011;64247;51.540;5.854;2023-03-01T04:03:13;8.00;;;4.93;;
75035;SDS011;64247;51.540;5.854;2023-03-01T04:05:14;7.72;;;5.05;;
75035;SDS011;64247;51.540;5.854;2023-03-01T04:07:18;6.43;;;4.22;;
75035;SDS011;64247;51.540;5.854;2023-03-01T04:09:19;7.43;;;4.78;;
75035;SDS011;64247;51.540;5.854;2023-03-01T04:11:19;7.35;;;4.68;;
75035;SDS011;64247;51.540;5.854;2023-03-01T04:13:26;8.38;;;5.15;;
75035;SDS011;64247;51.540;5.854;2023-03-01T04:15:27;10.68;;;5.78;;
75035;SDS011;64247;51.540;5.854;2023-03-01T04:17:28;11.60;;;5.10;;
75035;SDS011;64247;51.540;5.854;2023-03-01T04:19:28;9.90;;;4.70;;
75035;SDS011;64247;51.540;5.854;2023-03-01T04:21:29;10.00;;;5.80;;
75035;SDS011;64247;51.540;5.854;2023-03-01T04:23:29;8.18;;;4.90;;
75035;SDS011;64247;51.540;5.854;2023-03-01T04:25:30;10.10;;;4.72;;
75035;SDS011;64247;51.540;5.854;2023-03-01T04:27:33;9.50;;;5.53;;
75035;SDS011;64247;51.540;5.854;2023-03-01T04:29:33;10.05;;;4.97;;
75035;SDS011;64247;51.540;5.854;2023-03-01T04:31:35;8.30;;;4.80;;
75035;SDS011;64247;51.540;5.854;2023-03-01T04:33:35;12.70;;;4.55;;
75035;SDS011;64247;51.540;5.854;2023-03-01T04:35:36;6.57;;;4.03;;
75035;SDS011;64247;51.540;5.854;2023-03-01T04:37:37;11.18;;;5.68;;
75035;SDS011;64247;51.540;5.854;2023-03-01T04:39:38;10.95;;;5.50;;
75035;SDS011;64247;51.540;5.854;2023-03-01T04:41:45;10.52;;;5.70;;
75035;SDS011;64247;51.540;5.854;2023-03-01T04:43:46;10.02;;;4.97;;
75035;SDS011;64247;51.540;5.854;2023-03-01T04:45:46;12.25;;;5.53;;
75035;SDS011;64247;51.540;5.854;2023-03-01T04:47:47;11.40;;;5.97;;
75035;SDS011;64247;51.540;5.854;2023-03-01T04:49:48;6.63;;;4.68;;
75035;SDS011;64247;51.540;5.854;2023-03-01T04:51:48;7.22;;;4.50;;
75035;SDS011;64247;51.540;5.854;2023-03-01T04:53:49;9.93;;;4.28;;
75035;SDS011;64247;51.540;5.854;2023-03-01T04:55:50;8.27;;;4.60;;
75035;SDS011;64247;51.540;5.854;2023-03-01T04:57:51;7.63;;;4.68;;
75035;SDS011;64247;51.540;5.854;2023-03-01T04:59:51;5.88;;;3.72;;
75035;SDS011;64247;51.540;5.854;2023-03-01T05:01:52;7.85;;;4.93;;
75035;SDS011;64247;51.540;5.854;2023-03-01T05:03:55;8.85;;;3.97;;
75035;SDS011;64247;51.540;5.854;2023-03-01T05:05:58;8.00;;;4.40;;
75035;SDS011;64247;51.540;5.854;2023-03-01T05:08:00;9.73;;;5.05;;
75035;SDS011;64247;51.540;5.854;2023-03-01T05:10:01;9.13;;;4.53;;
75035;SDS011;64247;51.540;5.854;2023-03-01T05:12:01;11.38;;;5.35;;
75035;SDS011;64247;51.540;5.854;2023-03-01T05:14:03;11.48;;;5.35;;
75035;SDS011;64247;51.540;5.854;2023-03-01T05:16:03;8.57;;;4.93;;
75035;SDS011;64247;51.540;5.854;2023-03-01T05:20:11;8.30;;;4.47;;
75035;SDS011;64247;51.540;5.854;2023-03-01T05:22:12;5.70;;;4.28;;
75035;SDS011;64247;51.540;5.854;2023-03-01T05:24:12;8.23;;;4.25;;
75035;SDS011;64247;51.540;5.854;2023-03-01T05:26:13;6.78;;;4.10;;
75035;SDS011;64247;51.540;5.854;2023-03-01T05:30:14;7.38;;;4.72;;
75035;SDS011;64247;51.540;5.854;2023-03-01T05:32:15;5.68;;;4.05;;
75035;SDS011;64247;51.540;5.854;2023-03-01T05:34:16;6.32;;;4.45;;
75035;SDS011;64247;51.540;5.854;2023-03-01T05:36:17;7.78;;;4.25;;
75035;SDS011;64247;51.540;5.854;2023-03-01T05:38:18;7.25;;;4.85;;
75035;SDS011;64247;51.540;5.854;2023-03-01T05:40:20;8.43;;;4.88;;
75035;SDS011;64247;51.540;5.854;2023-03-01T05:42:22;10.32;;;5.50;;
75035;SDS011;64247;51.540;5.854;2023-03-01T05:44:23;10.57;;;4.65;;
75035;SDS011;64247;51.540;5.854;2023-03-01T05:48:24;6.57;;;4.20;;
75035;SDS011;64247;51.540;5.854;2023-03-01T05:50:26;9.73;;;5.00;;
75035;SDS011;64247;51.540;5.854;2023-03-01T05:52:27;10.65;;;6.07;;
75035;SDS011;64247;51.540;5.854;2023-03-01T05:54:27;9.35;;;4.40;;
75035;SDS011;64247;51.540;5.854;2023-03-01T05:56:28;9.07;;;4.57;;
75035;SDS011;64247;51.540;5.854;2023-03-01T05:58:29;9.45;;;4.78;;
75035;SDS011;64247;51.540;5.854;2023-03-01T06:00:30;7.45;;;5.00;;
75035;SDS011;64247;51.540;5.854;2023-03-01T06:02:30;18.73;;;7.82;;
75035;SDS011;64247;51.540;5.854;2023-03-01T06:04:31;10.75;;;6.03;;
75035;SDS011;64247;51.540;5.854;2023-03-01T06:06:35;14.02;;;6.25;;
75035;SDS011;64247;51.540;5.854;2023-03-01T06:08:37;12.60;;;6.30;;
75035;SDS011;64247;51.540;5.854;2023-03-01T06:10:38;14.93;;;6.40;;
75035;SDS011;64247;51.540;5.854;2023-03-01T06:12:40;7.40;;;4.97;;
75035;SDS011;64247;51.540;5.854;2023-03-01T06:14:40;15.57;;;4.32;;
75035;SDS011;64247;51.540;5.854;2023-03-01T06:16:41;12.18;;;4.40;;
75035;SDS011;64247;51.540;5.854;2023-03-01T06:18:41;9.30;;;4.53;;
75035;SDS011;64247;51.540;5.854;2023-03-01T06:20:42;11.18;;;5.05;;
75035;SDS011;64247;51.540;5.854;2023-03-01T06:22:43;8.57;;;4.95;;
75035;SDS011;64247;51.540;5.854;2023-03-01T06:24:43;9.18;;;5.22;;
75035;SDS011;64247;51.540;5.854;2023-03-01T06:26:44;11.23;;;5.25;;
75035;SDS011;64247;51.540;5.854;2023-03-01T06:28:44;10.32;;;4.53;;
75035;SDS011;64247;51.540;5.854;2023-03-01T06:30:46;8.70;;;4.68;;
75035;SDS011;64247;51.540;5.854;2023-03-01T06:32:46;8.73;;;5.03;;
75035;SDS011;64247;51.540;5.854;2023-03-01T06:34:47;10.27;;;5.32;;
75035;SDS011;64247;51.540;5.854;2023-03-01T06:36:47;10.38;;;5.82;;
75035;SDS011;64247;51.540;5.854;2023-03-01T06:38:48;10.43;;;5.40;;
75035;SDS011;64247;51.540;5.854;2023-03-01T06:40:52;7.80;;;4.93;;
75035;SDS011;64247;51.540;5.854;2023-03-01T06:42:54;8.25;;;5.13;;
75035;SDS011;64247;51.540;5.854;2023-03-01T06:44:54;11.60;;;5.22;;
75035;SDS011;64247;51.540;5.854;2023-03-01T06:46:55;9.20;;;5.25;;
75035;SDS011;64247;51.540;5.854;2023-03-01T06:48:56;12.40;;;5.65;;
75035;SDS011;64247;51.540;5.854;2023-03-01T06:51:00;11.30;;;4.88;;
75035;SDS011;64247;51.540;5.854;2023-03-01T06:53:01;12.45;;;6.03;;
75035;SDS011;64247;51.540;5.854;2023-03-01T06:55:02;9.45;;;5.05;;
75035;SDS011;64247;51.540;5.854;2023-03-01T06:57:02;14.40;;;6.78;;
75035;SDS011;64247;51.540;5.854;2023-03-01T06:59:03;9.82;;;5.70;;
75035;SDS011;64247;51.540;5.854;2023-03-01T07:01:07;10.02;;;5.60;;
75035;SDS011;64247;51.540;5.854;2023-03-01T07:03:07;12.43;;;5.72;;
75035;SDS011;64247;51.540;5.854;2023-03-01T07:05:08;8.82;;;5.47;;
75035;SDS011;64247;51.540;5.854;2023-03-01T07:07:09;13.50;;;6.60;;
75035;SDS011;64247;51.540;5.854;2023-03-01T07:09:09;13.55;;;5.68;;
75035;SDS011;64247;51.540;5.854;2023-03-01T07:11:10;16.48;;;6.82;;
75035;SDS011;64247;51.540;5.854;2023-03-01T07:13:10;10.32;;;6.25;;
75035;SDS011;64247;51.540;5.854;2023-03-01T07:15:11;9.57;;;6.15;;
75035;SDS011;64247;51.540;5.854;2023-03-01T07:17:11;10.48;;;5.45;;
75035;SDS011;64247;51.540;5.854;2023-03-01T07:21:13;11.27;;;5.63;;
75035;SDS011;64247;51.540;5.854;2023-03-01T07:23:15;10.98;;;6.07;;
75035;SDS011;64247;51.540;5.854;2023-03-01T07:27:16;8.85;;;5.38;;
75035;SDS011;64247;51.540;5.854;2023-03-01T07:31:16;7.60;;;5.10;;
75035;SDS011;64247;51.540;5.854;2023-03-01T07:35:17;8.30;;;5.32;;
75035;SDS011;64247;51.540;5.854;2023-03-01T07:37:18;5.82;;;4.22;;
75035;SDS011;64247;51.540;5.854;2023-03-01T07:39:18;8.57;;;5.53;;
75035;SDS011;64247;51.540;5.854;2023-03-01T07:41:19;7.80;;;6.07;;
75035;SDS011;64247;51.540;5.854;2023-03-01T07:43:19;10.30;;;6.10;;
75035;SDS011;64247;51.540;5.854;2023-03-01T07:45:20;8.95;;;5.13;;
75035;SDS011;64247;51.540;5.854;2023-03-01T07:47:21;8.00;;;5.07;;
75035;SDS011;64247;51.540;5.854;2023-03-01T07:49:21;10.02;;;6.03;;
75035;SDS011;64247;51.540;5.854;2023-03-01T07:51:22;6.68;;;5.38;;
75035;SDS011;64247;51.540;5.854;2023-03-01T07:53:23;8.82;;;5.60;;
75035;SDS011;64247;51.540;5.854;2023-03-01T07:55:23;8.77;;;5.60;;
75035;SDS011;64247;51.540;5.854;2023-03-01T07:57:24;8.63;;;6.32;;
75035;SDS011;64247;51.540;5.854;2023-03-01T07:59:24;11.85;;;6.00;;
75035;SDS011;64247;51.540;5.854;2023-03-01T08:01:29;13.70;;;7.22;;
75035;SDS011;64247;51.540;5.854;2023-03-01T08:03:29;14.05;;;6.47;;
75035;SDS011;64247;51.540;5.854;2023-03-01T08:05:30;10.45;;;5.80;;
75035;SDS011;64247;51.540;5.854;2023-03-01T08:07:30;9.95;;;6.25;;
75035;SDS011;64247;51.540;5.854;2023-03-01T08:09:31;11.18;;;7.43;;
75035;SDS011;64247;51.540;5.854;2023-03-01T08:11:31;10.45;;;6.10;;
75035;SDS011;64247;51.540;5.854;2023-03-01T08:13:32;12.00;;;6.13;;
75035;SDS011;64247;51.540;5.854;2023-03-01T08:15:33;8.32;;;5.28;;
75035;SDS011;64247;51.540;5.854;2023-03-01T08:17:34;7.57;;;5.00;;
75035;SDS011;64247;51.540;5.854;2023-03-01T08:19:34;9.13;;;5.63;;
75035;SDS011;64247;51.540;5.854;2023-03-01T08:21:35;8.38;;;5.38;;
75035;SDS011;64247;51.540;5.854;2023-03-01T08:23:35;6.65;;;4.63;;
75035;SDS011;64247;51.540;5.854;2023-03-01T08:25:36;7.55;;;5.22;;
75035;SDS011;64247;51.540;5.854;2023-03-01T08:27:37;11.27;;;5.57;;
75035;SDS011;64247;51.540;5.854;2023-03-01T08:29:37;10.45;;;5.50;;
75035;SDS011;64247;51.540;5.854;2023-03-01T08:31:39;8.88;;;5.28;;
75035;SDS011;64247;51.540;5.854;2023-03-01T08:33:39;13.25;;;5.32;;
75035;SDS011;64247;51.540;5.854;2023-03-01T08:35:40;7.38;;;3.70;;
75035;SDS011;64247;51.540;5.854;2023-03-01T08:37:41;8.88;;;4.88;;
75035;SDS011;64247;51.540;5.854;2023-03-01T08:39:41;6.97;;;4.13;;
75035;SDS011;64247;51.540;5.854;2023-03-01T08:41:42;9.30;;;4.72;;
75035;SDS011;64247;51.540;5.854;2023-03-01T08:43:43;14.50;;;5.35;;
75035;SDS011;64247;51.540;5.854;2023-03-01T08:45:43;11.60;;;5.07;;
75035;SDS011;64247;51.540;5.854;2023-03-01T08:47:44;13.82;;;4.97;;
75035;SDS011;64247;51.540;5.854;2023-03-01T08:49:45;11.65;;;4.82;;
75035;SDS011;64247;51.540;5.854;2023-03-01T08:51:46;6.07;;;4.20;;
75035;SDS011;64247;51.540;5.854;2023-03-01T08:53:47;9.60;;;4.97;;
75035;SDS011;64247;51.540;5.854;2023-03-01T08:55:48;7.88;;;4.72;;
75035;SDS011;64247;51.540;5.854;2023-03-01T08:57:48;7.90;;;4.88;;
75035;SDS011;64247;51.540;5.854;2023-03-01T08:59:49;9.80;;;4.28;;
75035;SDS011;64247;51.540;5.854;2023-03-01T09:01:49;13.50;;;4.45;;
75035;SDS011;64247;51.540;5.854;2023-03-01T09:03:50;9.68;;;4.82;;
75035;SDS011;64247;51.540;5.854;2023-03-01T09:05:51;7.80;;;4.72;;
75035;SDS011;64247;51.540;5.854;2023-03-01T09:07:52;7.05;;;4.82;;
75035;SDS011;64247;51.540;5.854;2023-03-01T09:09:52;5.38;;;3.90;;
75035;SDS011;64247;51.540;5.854;2023-03-01T09:11:53;5.85;;;3.85;;
75035;SDS011;64247;51.540;5.854;2023-03-01T09:13:54;11.32;;;5.45;;
75035;SDS011;64247;51.540;5.854;2023-03-01T09:15:55;8.70;;;4.53;;
75035;SDS011;64247;51.540;5.854;2023-03-01T09:17:55;14.57;;;4.88;;
75035;SDS011;64247;51.540;5.854;2023-03-01T09:19:56;9.80;;;4.75;;
75035;SDS011;64247;51.540;5.854;2023-03-01T09:21:56;7.03;;;5.38;;
75035;SDS011;64247;51.540;5.854;2023-03-01T09:23:58;12.10;;;3.80;;
75035;SDS011;64247;51.540;5.854;2023-03-01T09:25:59;11.25;;;4.65;;
75035;SDS011;64247;51.540;5.854;2023-03-01T09:27:59;11.75;;;5.68;;
75035;SDS011;64247;51.540;5.854;2023-03-01T09:30:00;8.15;;;4.68;;
75035;SDS011;64247;51.540;5.854;2023-03-01T09:32:00;4.20;;;2.47;;
75035;SDS011;64247;51.540;5.854;2023-03-01T09:34:01;6.97;;;4.13;;
75035;SDS011;64247;51.540;5.854;2023-03-01T09:36:03;10.02;;;3.92;;
75035;SDS011;64247;51.540;5.854;2023-03-01T09:38:03;9.27;;;5.07;;
75035;SDS011;64247;51.540;5.854;2023-03-01T09:40:05;5.57;;;4.97;;
75035;SDS011;64247;51.540;5.854;2023-03-01T09:42:06;6.20;;;3.92;;
75035;SDS011;64247;51.540;5.854;2023-03-01T09:46:32;12.05;;;4.65;;
75035;SDS011;64247;51.540;5.854;2023-03-01T09:48:56;8.63;;;5.25;;
75035;SDS011;64247;51.540;5.854;2023-03-01T09:50:57;8.55;;;5.88;;
75035;SDS011;64247;51.540;5.854;2023-03-01T09:55:33;18.17;;;5.30;;
75035;SDS011;64247;51.540;5.854;2023-03-01T10:02:26;7.32;;;4.68;;
75035;SDS011;64247;51.540;5.854;2023-03-01T10:06:51;9.35;;;5.55;;
75035;SDS011;64247;51.540;5.854;2023-03-01T10:16:09;5.10;;;3.42;;
75035;SDS011;64247;51.540;5.854;2023-03-01T10:18:12;7.82;;;3.72;;
75035;SDS011;64247;51.540;5.854;2023-03-01T10:20:18;5.90;;;4.40;;
75035;SDS011;64247;51.540;5.854;2023-03-01T10:22:20;6.43;;;3.97;;
75035;SDS011;64247;51.540;5.854;2023-03-01T10:24:21;6.97;;;3.42;;
75035;SDS011;64247;51.540;5.854;2023-03-01T10:31:18;9.57;;;3.60;;
75035;SDS011;64247;51.540;5.854;2023-03-01T10:33:22;5.53;;;3.58;;
75035;SDS011;64247;51.540;5.854;2023-03-01T10:35:25;14.38;;;3.17;;
75035;SDS011;64247;51.540;5.854;2023-03-01T10:37:25;6.70;;;3.35;;
75035;SDS011;64247;51.540;5.854;2023-03-01T10:39:27;8.18;;;2.55;;
75035;SDS011;64247;51.540;5.854;2023-03-01T10:41:28;5.28;;;2.97;;
75035;SDS011;64247;51.540;5.854;2023-03-01T10:43:40;6.30;;;4.05;;
75035;SDS011;64247;51.540;5.854;2023-03-01T10:45:43;6.97;;;3.50;;
75035;SDS011;64247;51.540;5.854;2023-03-01T10:47:43;4.70;;;2.85;;
75035;SDS011;64247;51.540;5.854;2023-03-01T10:49:51;8.35;;;4.35;;
75035;SDS011;64247;51.540;5.854;2023-03-01T10:51:52;7.15;;;3.97;;
75035;SDS011;64247;51.540;5.854;2023-03-01T10:53:53;6.15;;;3.05;;
75035;SDS011;64247;51.540;5.854;2023-03-01T10:55:57;4.78;;;2.63;;
75035;SDS011;64247;51.540;5.854;2023-03-01T11:00:23;6.60;;;3.17;;
75035;SDS011;64247;51.540;5.854;2023-03-01T11:02:30;2.78;;;1.83;;
75035;SDS011;64247;51.540;5.854;2023-03-01T11:04:34;4.35;;;3.17;;
75035;SDS011;64247;51.540;5.854;2023-03-01T11:06:35;5.15;;;2.53;;
75035;SDS011;64247;51.540;5.854;2023-03-01T11:15:36;4.57;;;3.13;;
75035;SDS011;64247;51.540;5.854;2023-03-01T11:17:36;6.80;;;3.40;;
75035;SDS011;64247;51.540;5.854;2023-03-01T11:19:38;8.55;;;3.25;;
75035;SDS011;64247;51.540;5.854;2023-03-01T11:21:56;7.85;;;3.33;;
75035;SDS011;64247;51.540;5.854;2023-03-01T11:23:59;3.90;;;2.10;;
75035;SDS011;64247;51.540;5.854;2023-03-01T11:26:04;4.20;;;2.90;;
75035;SDS011;64247;51.540;5.854;2023-03-01T11:28:06;6.57;;;3.28;;
75035;SDS011;64247;51.540;5.854;2023-03-01T11:30:18;6.30;;;2.20;;
75035;SDS011;64247;51.540;5.854;2023-03-01T11:32:20;7.18;;;3.00;;
75035;SDS011;64247;51.540;5.854;2023-03-01T11:36:59;8.00;;;3.78;;
75035;SDS011;64247;51.540;5.854;2023-03-01T11:39:03;6.80;;;3.72;;
75035;SDS011;64247;51.540;5.854;2023-03-01T11:48:20;6.72;;;3.97;;
75035;SDS011;64247;51.540;5.854;2023-03-01T11:50:28;6.20;;;3.70;;
75035;SDS011;64247;51.540;5.854;2023-03-01T11:55:05;10.63;;;4.05;;
75035;SDS011;64247;51.540;5.854;2023-03-01T12:02:00;6.57;;;4.13;;
75035;SDS011;64247;51.540;5.854;2023-03-01T12:06:32;8.48;;;5.10;;
75035;SDS011;64247;51.540;5.854;2023-03-01T12:08:42;5.70;;;3.90;;
75035;SDS011;64247;51.540;5.854;2023-03-01T12:12:37;8.02;;;3.53;;
75035;SDS011;64247;51.540;5.854;2023-03-01T12:13:23;7.60;;;4.90;;
75035;SDS011;64247;51.540;5.854;2023-03-01T12:15:33;5.57;;;3.05;;
75035;SDS011;64247;51.540;5.854;2023-03-01T12:22:35;6.13;;;3.95;;
75035;SDS011;64247;51.540;5.854;2023-03-01T12:27:09;4.90;;;3.53;;
75035;SDS011;64247;51.540;5.854;2023-03-01T12:33:57;10.82;;;4.40;;
75035;SDS011;64247;51.540;5.854;2023-03-01T12:38:33;8.70;;;4.13;;
75035;SDS011;64247;51.540;5.854;2023-03-01T12:40:52;7.22;;;4.15;;
75035;SDS011;64247;51.540;5.854;2023-03-01T12:50:05;7.38;;;3.92;;
75035;SDS011;64247;51.540;5.854;2023-03-01T12:52:16;5.72;;;3.63;;
75035;SDS011;64247;51.540;5.854;2023-03-01T12:54:25;8.32;;;4.50;;
75035;SDS011;64247;51.540;5.854;2023-03-01T12:56:28;4.22;;;3.60;;
75035;SDS011;64247;51.540;5.854;2023-03-01T12:58:45;7.85;;;4.22;;
75035;SDS011;64247;51.540;5.854;2023-03-01T13:03:20;8.23;;;4.60;;
75035;SDS011;64247;51.540;5.854;2023-03-01T13:14:58;6.30;;;3.50;;
75035;SDS011;64247;51.540;5.854;2023-03-01T13:16:59;5.32;;;3.30;;
75035;SDS011;64247;51.540;5.854;2023-03-01T13:19:06;8.07;;;4.05;;
75035;SDS011;64247;51.540;5.854;2023-03-01T13:21:06;5.78;;;4.20;;
75035;SDS011;64247;51.540;5.854;2023-03-01T13:23:23;6.25;;;3.45;;
75035;SDS011;64247;51.540;5.854;2023-03-01T13:25:25;6.15;;;3.53;;
75035;SDS011;64247;51.540;5.854;2023-03-01T13:27:25;6.50;;;4.47;;
75035;SDS011;64247;51.540;5.854;2023-03-01T13:29:29;7.07;;;3.78;;
75035;SDS011;64247;51.540;5.854;2023-03-01T13:34:09;8.80;;;3.70;;
75035;SDS011;64247;51.540;5.854;2023-03-01T13:38:55;3.40;;;2.65;;
75035;SDS011;64247;51.540;5.854;2023-03-01T13:40:57;4.55;;;2.80;;
75035;SDS011;64247;51.540;5.854;2023-03-01T13:42:58;4.25;;;2.80;;
75035;SDS011;64247;51.540;5.854;2023-03-01T13:45:20;11.80;;;5.05;;
75035;SDS011;64247;51.540;5.854;2023-03-01T13:47:21;4.88;;;2.85;;
75035;SDS011;64247;51.540;5.854;2023-03-01T13:49:22;5.28;;;3.78;;
75035;SDS011;64247;51.540;5.854;2023-03-01T13:51:25;3.00;;;2.70;;
75035;SDS011;64247;51.540;5.854;2023-03-01T13:53:27;9.63;;;4.97;;
75035;SDS011;64247;51.540;5.854;2023-03-01T13:57:53;7.53;;;3.88;;
75035;SDS011;64247;51.540;5.854;2023-03-01T13:59:54;6.00;;;4.15;;
75035;SDS011;64247;51.540;5.854;2023-03-01T14:01:55;8.05;;;3.72;;
75035;SDS011;64247;51.540;5.854;2023-03-01T14:03:56;7.88;;;4.68;;
75035;SDS011;64247;51.540;5.854;2023-03-01T14:06:04;8.50;;;4.50;;
75035;SDS011;64247;51.540;5.854;2023-03-01T14:08:18;7.47;;;4.20;;
75035;SDS011;64247;51.540;5.854;2023-03-01T14:10:19;9.57;;;4.90;;
75035;SDS011;64247;51.540;5.854;2023-03-01T14:14:52;7.80;;;4.82;;
75035;SDS011;64247;51.540;5.854;2023-03-01T14:19:19;6.20;;;4.95;;
75035;SDS011;64247;51.540;5.854;2023-03-01T14:21:21;5.72;;;4.82;;
75035;SDS011;64247;51.540;5.854;2023-03-01T14:23:23;8.65;;;5.05;;
75035;SDS011;64247;51.540;5.854;2023-03-01T14:25:25;6.93;;;4.72;;
75035;SDS011;64247;51.540;5.854;2023-03-01T14:27:27;7.15;;;4.40;;
75035;SDS011;64247;51.540;5.854;2023-03-01T14:29:36;11.65;;;5.43;;
75035;SDS011;64247;51.540;5.854;2023-03-01T14:31:38;8.57;;;4.90;;